createdAt,value
2023-02-23T00:00:03.185Z,73
2023-02-23T00:20:02.706Z,73
2023-02-23T00:40:02.954Z,74
2023-02-23T01:00:02.358Z,74
2023-02-23T01:20:03.012Z,74
2023-02-23T01:40:02.494Z,74
2023-02-23T02:00:02.876Z,74
2023-02-23T02:20:02.522Z,75
2023-02-23T02:40:02.842Z,75
2023-02-23T03:00:03.247Z,75
2023-02-23T03:20:02.823Z,75
2023-02-23T03:40:03.389Z,75
2023-02-23T04:00:02.786Z,75
2023-02-23T04:20:02.610Z,75
2023-02-23T04:40:03.039Z,75
2023-02-23T05:00:02.451Z,75
2023-02-23T05:20:03.073Z,75
2023-02-23T05:40:02.595Z,75
2023-02-23T06:00:02.914Z,75
2023-02-23T06:20:02.777Z,75
2023-02-23T06:40:03.219Z,76
2023-02-23T07:00:02.610Z,75
2023-02-23T07:20:02.286Z,75
2023-02-23T07:40:02.708Z,75
2023-02-23T08:00:04.572Z,75
2023-02-23T08:20:03.259Z,75
2023-02-23T08:40:02.768Z,74
2023-02-23T09:00:09.104Z,74
2023-02-23T09:20:02.662Z,73
2023-02-23T09:40:03.237Z,73
2023-02-23T10:00:05.747Z,72
2023-02-23T10:20:03.408Z,72
2023-02-23T10:40:02.844Z,71
2023-02-23T11:00:03.828Z,69
2023-02-23T11:20:02.717Z,67
2023-02-23T11:40:03.065Z,66
2023-02-23T12:00:03.690Z,66
2023-02-23T12:20:03.004Z,66
2023-02-23T12:40:02.484Z,65
2023-02-23T13:00:06.027Z,66
2023-02-23T13:20:03.204Z,66
2023-02-23T13:40:02.925Z,67
2023-02-23T14:00:04.917Z,68
2023-02-23T14:20:06.473Z,68
2023-02-23T14:40:03.902Z,69
2023-02-23T15:00:02.636Z,70
2023-02-23T15:20:16.891Z,71
2023-02-23T15:40:02.450Z,72
2023-02-23T16:00:03.109Z,73
2023-02-23T16:20:02.808Z,74
2023-02-23T16:40:03.551Z,76
2023-02-23T17:00:04.666Z,78
2023-02-23T17:20:02.393Z,79
2023-02-23T17:40:02.640Z,81
2023-02-23T18:00:03.359Z,82
2023-02-23T18:20:02.783Z,82
2023-02-23T18:40:03.300Z,83
2023-02-23T19:00:04.283Z,83
2023-02-23T19:20:04.599Z,84
2023-02-23T19:40:04.089Z,85
2023-02-23T20:00:03.559Z,85
2023-02-23T20:20:02.179Z,86
2023-02-23T20:40:02.454Z,86
2023-02-23T21:00:03.863Z,86
2023-02-23T21:20:02.389Z,85
2023-02-23T21:40:03.039Z,84
2023-02-23T22:00:02.972Z,84
2023-02-23T22:20:02.557Z,84
2023-02-23T22:40:02.907Z,84
2023-02-23T23:00:02.216Z,84
2023-02-23T23:20:02.875Z,85
2023-02-23T23:40:02.470Z,85
